Time;durP1;ratioP1;P1;durP2;ratioP2;P2;SDS_P1;SDS_P2;PMS_P1;PMS_P2;Temp;Humidity;BMP_temperature;BMP_pressure;BME280_temperature;BME280_humidity;BME280_pressure;Samples;Min_cycle;Max_cycle;Signal;HPM_P1;HPM_P2
2024/02/05 00:00:12;;;;;;;18.33;10.00;;;6.70;67.70;;;1.85;100.00;96520.91;4962626;28;20030;-52
2024/02/05 00:02:39;;;;;;;22.08;11.00;;;6.70;67.80;;;1.83;100.00;96515.81;4959319;28;20025;-50
2024/02/05 00:05:10;;;;;;;22.73;12.95;;;6.70;67.80;;;1.87;100.00;96518.09;4961886;28;20400;-51
2024/02/05 00:07:36;;;;;;;24.63;11.07;;;6.70;68.10;;;1.90;100.00;96520.34;4958635;28;20432;-49
2024/02/05 00:10:07;;;;;;;24.77;12.65;;;6.70;68.10;;;1.92;100.00;96518.34;4956324;28;20026;-50
2024/02/05 00:12:33;;;;;;;18.48;11.38;;;6.70;68.30;;;1.94;100.00;96521.56;4958358;28;20112;-50
2024/02/05 00:15:00;;;;;;;19.90;11.75;;;6.70;68.30;;;1.93;100.00;96520.78;4956561;28;20104;-51
2024/02/05 00:17:26;;;;;;;19.52;12.00;;;6.70;68.30;;;1.94;100.00;96529.47;4957895;28;20035;-51
2024/02/05 00:19:52;;;;;;;19.65;11.63;;;6.70;68.30;;;1.93;100.00;96520.78;4955869;28;20056;-49
2024/02/05 00:22:18;;;;;;;19.55;10.90;;;6.70;69.20;;;1.92;100.00;96516.53;4966093;28;20109;-49
2024/02/05 00:24:44;;;;;;;24.55;12.50;;;6.70;68.40;;;1.92;100.00;96515.72;4959495;28;20026;-49
2024/02/05 00:27:11;;;;;;;28.08;13.70;;;6.70;68.50;;;1.93;100.00;96514.72;4955135;28;20457;-57
2024/02/05 00:29:36;;;;;;;24.63;12.98;;;6.70;68.60;;;1.95;100.00;96513.53;4957733;28;20081;-49
2024/02/05 00:32:03;;;;;;;22.02;11.73;;;6.70;68.70;;;1.93;100.00;96518.16;4955854;28;21110;-49
2024/02/05 00:34:29;;;;;;;23.52;12.73;;;6.70;68.70;;;1.92;100.00;96520.97;4955103;28;20150;-49
2024/02/05 00:36:56;;;;;;;24.10;13.30;;;6.70;68.70;;;1.93;100.00;96520.78;4957342;28;20125;-49
2024/02/05 00:39:22;;;;;;;20.73;12.35;;;6.70;68.90;;;1.96;100.00;96523.03;4956262;28;20053;-52
2024/02/05 00:41:47;;;;;;;20.58;11.38;;;6.70;68.90;;;1.94;100.00;96519.75;4959152;28;20037;-51
2024/02/05 00:44:13;;;;;;;23.80;12.00;;;6.70;68.90;;;1.90;100.00;96509.81;4955194;28;20035;-50
2024/02/05 00:46:39;;;;;;;19.52;11.85;;;6.70;68.90;;;1.90;100.00;96508.00;4967304;28;20022;-49
2024/02/05 00:49:06;;;;;;;19.90;11.93;;;6.70;68.90;;;1.88;100.00;96504.78;4954328;28;20031;-50
2024/02/05 00:51:33;;;;;;;21.13;11.45;;;6.70;69.00;;;1.87;100.00;96503.13;4957631;28;20022;-50
2024/02/05 00:53:59;;;;;;;25.38;11.85;;;6.70;69.00;;;1.87;100.00;96508.38;4954426;28;20030;-52
2024/02/05 00:56:25;;;;;;;20.05;10.88;;;6.70;69.10;;;1.86;100.00;96509.38;4957941;28;20107;-51
2024/02/05 00:58:51;;;;;;;22.65;11.57;;;6.70;69.20;;;1.88;100.00;96499.53;4956788;28;20029;-50
2024/02/05 01:01:17;;;;;;;24.95;12.73;;;6.70;69.30;;;1.94;100.00;96509.25;4959530;28;20104;-53
2024/02/05 01:03:43;;;;;;;21.23;11.88;;;6.70;69.40;;;1.97;100.00;96502.81;4965606;28;20037;-51
2024/02/05 01:06:09;;;;;;;22.02;11.85;;;6.80;69.60;;;2.00;100.00;96508.50;4954304;28;20039;-50
2024/02/05 01:08:36;;;;;;;28.50;12.48;;;6.80;69.50;;;2.05;100.00;96515.84;4957155;28;20033;-52
2024/02/05 01:11:02;;;;;;;23.80;11.15;;;6.90;69.60;;;2.09;100.00;96520.50;4976173;28;20046;-51
2024/02/05 01:13:29;;;;;;;20.23;11.85;;;6.90;69.60;;;2.14;100.00;96519.16;4958207;28;20038;-50
2024/02/05 01:15:55;;;;;;;20.90;12.00;;;7.00;69.70;;;2.18;100.00;96520.41;4957766;28;20053;-50
2024/02/05 01:18:21;;;;;;;20.52;11.73;;;7.00;69.60;;;2.20;100.00;96518.41;4953211;28;20121;-49
2024/02/05 01:20:49;;;;;;;20.23;11.35;;;7.00;69.60;;;2.21;100.00;96512.94;4957594;28;20081;-52
2024/02/05 01:23:15;;;;;;;17.98;11.00;;;7.10;69.60;;;2.24;100.00;96515.19;4953103;28;20125;-49
2024/02/05 01:25:43;;;;;;;23.50;11.55;;;7.10;69.50;;;2.26;100.00;96509.75;4955289;28;20544;-51
2024/02/05 01:28:09;;;;;;;21.70;10.85;;;7.10;69.50;;;2.25;100.00;96508.94;4955569;28;20409;-50
2024/02/05 01:30:35;;;;;;;17.95;11.07;;;7.10;69.40;;;2.22;100.00;96504.03;4956309;28;20019;-49
2024/02/05 01:33:01;;;;;;;22.08;11.35;;;7.10;69.20;;;2.17;100.00;96506.44;4953892;28;20047;-52
2024/02/05 01:35:27;;;;;;;17.50;10.60;;;7.10;69.20;;;2.12;100.00;96500.94;4958073;28;20477;-50
2024/02/05 01:37:53;;;;;;;18.00;10.88;;;7.10;69.00;;;2.09;100.00;96499.50;4969104;28;20018;-50
2024/02/05 01:40:19;;;;;;;19.00;10.68;;;7.00;68.90;;;2.02;100.00;96497.81;4960026;28;20046;-50
2024/02/05 01:42:45;;;;;;;20.17;11.02;;;7.00;68.80;;;1.98;100.00;96501.81;4959657;28;20017;-52
2024/02/05 01:45:11;;;;;;;17.85;10.90;;;6.90;68.80;;;1.94;100.00;96498.75;4956772;28;20437;-50
2024/02/05 01:47:40;;;;;;;22.45;10.93;;;6.90;68.80;;;1.88;100.00;96496.88;4962017;28;20015;-50
2024/02/05 01:50:12;;;;;;;25.00;10.10;;;6.80;68.80;;;1.82;100.00;96493.19;4955409;28;20597;-49
2024/02/05 01:52:49;;;;;;;21.02;10.18;;;6.80;68.70;;;1.75;100.00;96504.63;4955096;28;20023;-50
2024/02/05 01:55:23;;;;;;;17.00;9.45;;;6.70;68.60;;;1.65;100.00;96490.97;4956891;28;20054;-50
2024/02/05 01:57:51;;;;;;;31.30;10.00;;;6.70;68.50;;;1.54;100.00;96482.59;4956806;28;20426;-52
2024/02/05 02:00:17;;;;;;;21.63;10.07;;;6.60;68.30;;;1.47;100.00;96480.88;4959319;28;20031;-51
2024/02/05 02:02:45;;;;;;;33.58;12.20;;;6.50;68.30;;;1.43;100.00;96480.44;4956890;28;20034;-55
2024/02/05 02:05:13;;;;;;;46.85;13.20;;;6.40;68.40;;;1.42;100.00;96488.50;4957709;28;20038;-53
2024/02/05 02:07:40;;;;;;;21.10;11.52;;;6.40;68.60;;;1.42;100.00;96493.78;4956191;28;20018;-50
2024/02/05 02:10:07;;;;;;;24.95;11.77;;;6.40;68.70;;;1.41;100.00;96489.50;4954079;28;20569;-52
2024/02/05 02:12:33;;;;;;;33.67;14.95;;;6.40;68.90;;;1.40;100.00;96488.69;4958666;28;20061;-50
2024/02/05 02:14:59;;;;;;;25.25;11.63;;;6.30;68.80;;;1.38;100.00;96493.31;4954094;28;20035;-51
2024/02/05 02:17:31;;;;;;;53.10;12.02;;;6.30;68.90;;;1.34;100.00;96489.41;4953864;28;20073;-51
2024/02/05 02:19:58;;;;;;;22.00;12.23;;;6.30;68.90;;;1.32;100.00;96487.00;4953259;28;20528;-52
2024/02/05 02:22:35;;;;;;;47.10;16.38;;;6.40;68.90;;;1.34;100.00;96492.03;4960735;28;20030;-51
2024/02/05 02:25:02;;;;;;;23.90;13.05;;;6.40;69.00;;;1.38;100.00;96490.69;4955084;28;20049;-54
2024/02/05 02:27:29;;;;;;;99.38;18.27;;;6.40;69.00;;;1.38;100.00;96486.25;4958767;28;20027;-50
2024/02/05 02:29:57;;;;;;;69.05;18.33;;;6.40;69.00;;;1.42;100.00;96494.56;4955504;28;20493;-51
2024/02/05 02:33:10;;;;;;;146.88;21.60;;;6.40;69.10;;;1.46;100.00;96487.13;4953716;28;20113;-50
2024/02/05 02:35:52;;;;;;;298.45;25.35;;;6.50;69.20;;;1.49;100.00;96482.31;4957356;28;20161;-49
2024/02/05 02:38:35;;;;;;;462.25;27.77;;;6.50;69.30;;;1.50;100.00;96481.31;4976820;28;20496;-49
2024/02/05 02:41:13;;;;;;;369.35;28.73;;;6.50;69.30;;;1.50;100.00;96486.56;4956466;28;20564;-49
2024/02/05 02:44:05;;;;;;;621.17;36.55;;;6.50;69.20;;;1.49;100.00;96484.16;4956166;28;20029;-51
2024/02/05 02:46:31;;;;;;;412.83;29.17;;;6.50;69.10;;;1.49;100.00;96487.59;4955379;28;20080;-49
2024/02/05 02:48:58;;;;;;;234.90;21.15;;;6.50;69.00;;;1.47;100.00;96483.50;4953468;28;20088;-51
2024/02/05 02:51:25;;;;;;;178.52;19.23;;;6.50;69.10;;;1.46;100.00;96484.50;4962856;28;20031;-50
2024/02/05 02:53:51;;;;;;;562.17;37.20;;;6.50;69.10;;;1.41;100.00;96482.47;4953319;28;20030;-51
2024/02/05 02:56:18;;;;;;;291.35;26.50;;;6.40;69.00;;;1.39;100.00;96490.50;4956176;28;20436;-52
2024/02/05 02:58:44;;;;;;;217.82;20.83;;;6.40;69.00;;;1.36;100.00;96497.94;4955783;28;20116;-50
2024/02/05 03:01:10;;;;;;;241.60;22.00;;;6.40;69.10;;;1.34;100.00;96481.53;4963615;28;20039;-51
2024/02/05 03:03:36;;;;;;;132.00;18.50;;;6.40;69.20;;;1.33;100.00;96490.44;4959912;28;20485;-51
2024/02/05 03:06:02;;;;;;;42.53;16.25;;;6.30;69.20;;;1.34;100.00;96494.66;4951882;28;20034;-52
2024/02/05 03:08:28;;;;;;;35.38;14.88;;;6.40;69.40;;;1.39;100.00;96498.38;4955277;28;20019;-51
2024/02/05 03:10:54;;;;;;;28.10;14.05;;;6.40;69.60;;;1.48;100.00;96504.34;4951191;28;20502;-55
2024/02/05 03:13:20;;;;;;;31.60;14.65;;;6.40;69.80;;;1.55;100.00;96502.59;4956839;28;20520;-55
2024/02/05 03:15:46;;;;;;;28.58;13.50;;;6.40;70.00;;;1.60;100.00;96500.25;4958067;28;20022;-58
2024/02/05 03:18:13;;;;;;;28.48;12.95;;;6.50;70.30;;;1.65;100.00;96496.22;4955498;28;20488;-54
2024/02/05 03:20:41;;;;;;;33.25;13.70;;;6.50;70.40;;;1.68;100.00;96494.03;4958911;28;20034;-58
2024/02/05 03:23:12;;;;;;;26.10;13.50;;;6.50;70.60;;;1.71;100.00;96498.13;4962254;28;20058;-54
2024/02/05 03:25:39;;;;;;;32.05;14.27;;;6.60;70.80;;;1.71;100.00;96484.97;4957163;28;20413;-56
2024/02/05 03:28:07;;;;;;;31.52;12.68;;;6.60;70.90;;;1.74;100.00;96481.97;4961404;28;20022;-57
2024/02/05 03:30:35;;;;;;;29.85;13.05;;;6.60;70.90;;;1.76;100.00;96485.25;4958097;28;20046;-57
2024/02/05 03:33:04;;;;;;;31.25;13.07;;;6.60;71.00;;;1.77;100.00;96481.59;4956657;28;20042;-57
2024/02/05 03:35:31;;;;;;;26.65;13.45;;;6.60;71.20;;;1.78;100.00;96491.09;4955734;28;20430;-56
2024/02/05 03:37:57;;;;;;;24.30;12.48;;;6.60;71.40;;;1.81;100.00;96488.91;4957264;28;20026;-54
2024/02/05 03:40:23;;;;;;;28.90;13.25;;;6.70;71.50;;;1.85;100.00;96484.94;4954881;28;20035;-54
2024/02/05 03:42:52;;;;;;;21.67;12.30;;;6.70;71.60;;;1.87;100.00;96495.25;4959098;28;20568;-56
2024/02/05 03:45:19;;;;;;;23.55;12.52;;;6.70;71.90;;;1.90;100.00;96488.81;4959435;28;20077;-55
2024/02/05 03:47:46;;;;;;;27.80;12.38;;;6.80;71.80;;;1.90;100.00;96484.34;4962458;28;20462;-54
2024/02/05 03:50:12;;;;;;;23.08;12.00;;;6.80;72.00;;;1.93;100.00;96491.88;4957477;28;20026;-57
2024/02/05 03:52:48;;;;;;;26.92;12.23;;;6.80;72.00;;;1.94;100.00;96488.22;4955405;28;20022;-57
2024/02/05 03:55:15;;;;;;;24.02;12.43;;;6.80;72.00;;;1.97;100.00;96485.22;4957593;28;20054;-57
2024/02/05 03:57:57;;;;;;;21.35;11.82;;;6.80;72.00;;;1.98;100.00;96486.06;4957444;28;20023;-54
2024/02/05 04:00:23;;;;;;;26.42;11.52;;;6.80;72.20;;;1.99;100.00;96491.13;4962948;28;20049;-53
2024/02/05 04:02:49;;;;;;;20.15;10.60;;;6.80;71.90;;;2.00;100.00;96487.47;4960161;28;20092;-54
2024/02/05 04:05:15;;;;;;;23.38;11.93;;;6.90;72.00;;;2.01;100.00;96478.59;4959792;28;20117;-54
2024/02/05 04:07:40;;;;;;;20.27;10.70;;;6.90;72.00;;;2.00;100.00;96474.34;4959204;28;20104;-58
2024/02/05 04:10:07;;;;;;;26.35;12.70;;;6.90;71.90;;;1.98;100.00;96481.63;4954660;28;20072;-56
2024/02/05 04:12:33;;;;;;;27.85;12.38;;;6.90;72.00;;;1.98;100.00;96478.19;4957996;28;20086;-57
2024/02/05 04:15:00;;;;;;;25.20;11.73;;;6.90;72.00;;;1.97;100.00;96479.16;4955412;28;20035;-56
2024/02/05 04:17:26;;;;;;;21.20;11.00;;;6.90;71.90;;;1.94;100.00;96477.72;4956759;28;20026;-56
2024/02/05 04:19:52;;;;;;;25.45;12.32;;;6.90;71.90;;;1.97;100.00;96476.53;4955338;28;20022;-57
2024/02/05 04:22:19;;;;;;;25.33;10.85;;;6.90;71.90;;;1.94;100.00;96479.53;4962889;28;20030;-55
2024/02/05 04:24:45;;;;;;;19.13;10.98;;;6.80;71.70;;;1.91;100.00;96475.47;4955960;28;20066;-59
2024/02/05 04:27:11;;;;;;;26.58;12.10;;;6.80;71.80;;;1.88;100.00;96478.50;4960588;28;20536;-57
2024/02/05 04:29:40;;;;;;;21.42;10.80;;;6.80;71.80;;;1.90;100.00;96489.63;4961485;28;20405;-54
2024/02/05 04:32:06;;;;;;;24.10;12.25;;;6.80;71.80;;;1.89;100.00;96487.19;4954930;28;20050;-54
2024/02/05 04:34:32;;;;;;;25.35;12.13;;;6.80;71.80;;;1.89;100.00;96493.25;4974943;28;20136;-55
2024/02/05 04:36:58;;;;;;;22.65;12.13;;;6.80;71.80;;;1.88;100.00;96493.41;4955720;28;20739;-55
2024/02/05 04:39:24;;;;;;;24.33;11.88;;;6.80;71.80;;;1.91;100.00;96499.13;4962397;28;20109;-54
2024/02/05 04:41:50;;;;;;;17.23;10.45;;;6.80;71.70;;;1.87;100.00;96492.63;4976427;28;20124;-57
2024/02/05 04:44:17;;;;;;;19.73;11.15;;;6.80;71.60;;;1.89;100.00;96501.13;4956855;28;20425;-54
2024/02/05 04:46:43;;;;;;;28.60;11.27;;;6.80;71.50;;;1.87;100.00;96499.69;4965012;28;20022;-59
2024/02/05 04:49:10;;;;;;;27.50;12.20;;;6.80;71.50;;;1.87;100.00;96502.31;4953727;28;20117;-53
2024/02/05 04:51:36;;;;;;;23.63;12.35;;;6.70;71.40;;;1.83;100.00;96496.63;4960920;28;20552;-58
2024/02/05 04:54:03;;;;;;;28.30;12.85;;;6.80;71.40;;;1.84;100.00;96503.50;4954560;28;20281;-56
2024/02/05 04:56:29;;;;;;;26.17;13.07;;;6.70;71.60;;;1.89;100.00;96508.22;4956521;28;20541;-54
2024/02/05 04:58:55;;;;;;;25.42;12.15;;;6.80;71.60;;;1.90;100.00;96505.38;4958743;28;20027;-58
2024/02/05 05:01:21;;;;;;;25.60;11.52;;;6.80;71.60;;;1.89;100.00;96502.94;4961169;28;20023;-58
2024/02/05 05:03:46;;;;;;;26.42;11.63;;;6.80;71.60;;;1.93;100.00;96501.56;4964891;28;20029;-57
2024/02/05 05:06:12;;;;;;;28.42;12.27;;;6.80;71.60;;;1.91;100.00;96501.75;4954025;28;20058;-57
2024/02/05 05:08:38;;;;;;;23.23;11.55;;;6.80;71.70;;;1.92;100.00;96503.38;4957687;28;20069;-55
2024/02/05 05:11:04;;;;;;;28.52;11.93;;;6.80;71.70;;;1.96;100.00;96502.00;4955651;28;20065;-58
2024/02/05 05:13:30;;;;;;;24.77;11.75;;;6.90;71.70;;;1.93;100.00;96507.63;4958683;28;20046;-58
2024/02/05 05:15:57;;;;;;;22.60;11.57;;;6.90;71.70;;;1.98;100.00;96504.47;4956659;28;20046;-58
2024/02/05 05:18:23;;;;;;;23.35;11.77;;;6.90;71.70;;;1.99;100.00;96506.06;4954149;28;20030;-58
2024/02/05 05:20:49;;;;;;;29.58;12.32;;;6.90;71.60;;;2.00;100.00;96507.69;4957975;28;20416;-54
2024/02/05 05:23:15;;;;;;;25.75;12.43;;;6.90;71.60;;;2.02;100.00;96505.69;4958640;28;20030;-56
2024/02/05 05:25:42;;;;;;;25.77;11.70;;;7.00;71.70;;;2.02;100.00;96509.13;4960421;28;20026;-56
2024/02/05 05:28:08;;;;;;;22.98;11.68;;;7.00;71.70;;;2.05;100.00;96511.38;4959344;28;20486;-56
2024/02/05 05:30:35;;;;;;;25.02;11.82;;;7.00;71.60;;;2.08;100.00;96513.63;4956412;28;20061;-58
2024/02/05 05:33:01;;;;;;;22.70;11.38;;;7.00;71.60;;;2.07;100.00;96509.41;4953567;28;20033;-56
2024/02/05 05:35:27;;;;;;;25.52;11.25;;;7.00;71.60;;;2.07;100.00;96517.28;4953455;28;20026;-55
2024/02/05 05:37:53;;;;;;;24.90;12.13;;;7.00;71.50;;;2.13;100.00;96515.72;4954575;28;20030;-57
2024/02/05 05:40:19;;;;;;;24.33;11.63;;;7.10;71.50;;;2.12;100.00;96518.53;4957056;28;20042;-56
2024/02/05 05:42:45;;;;;;;21.70;11.48;;;7.10;71.40;;;2.13;100.00;96520.97;4961951;28;20480;-57
2024/02/05 05:45:11;;;;;;;24.20;11.82;;;7.10;71.30;;;2.16;100.00;96525.03;4954806;28;20039;-54
2024/02/05 05:47:43;;;;;;;21.80;11.02;;;7.10;71.30;;;2.08;100.00;96524.16;4960605;28;20026;-55
2024/02/05 05:50:10;;;;;;;25.60;11.52;;;7.20;71.30;;;2.10;100.00;96523.97;4960602;28;20030;-54
2024/02/05 05:52:36;;;;;;;26.77;12.32;;;7.20;71.20;;;2.15;100.00;96533.91;4953750;28;20031;-55
2024/02/05 05:55:03;;;;;;;23.83;12.52;;;7.20;71.20;;;2.15;100.00;96518.16;4954938;28;20432;-57
2024/02/05 05:57:29;;;;;;;23.10;11.50;;;7.20;71.20;;;2.15;100.00;96518.97;4952917;28;20425;-56
2024/02/05 05:59:54;;;;;;;24.80;11.52;;;7.20;71.30;;;2.15;100.00;96518.16;4959910;28;20058;-58
2024/02/05 06:02:20;;;;;;;24.08;11.98;;;7.20;71.20;;;2.11;100.00;96519.53;4954904;28;20417;-55
2024/02/05 06:04:46;;;;;;;25.27;11.73;;;7.20;71.20;;;2.15;100.00;96531.28;4959515;28;20039;-56
2024/02/05 06:07:12;;;;;;;23.88;12.02;;;7.20;71.20;;;2.19;100.00;96522.81;4953710;28;20118;-55
2024/02/05 06:09:38;;;;;;;23.48;11.50;;;7.20;71.20;;;2.14;100.00;96524.41;4956279;28;20042;-55
2024/02/05 06:12:05;;;;;;;24.58;12.25;;;7.20;71.20;;;2.13;100.00;96525.41;4954709;28;20421;-55
2024/02/05 06:14:31;;;;;;;25.98;11.73;;;7.20;71.20;;;2.18;100.00;96526.47;4958029;28;20027;-57
2024/02/05 06:16:58;;;;;;;26.80;11.98;;;7.20;71.20;;;2.18;100.00;96530.91;4955873;28;20057;-55
2024/02/05 06:19:24;;;;;;;24.42;12.05;;;7.20;71.30;;;2.20;100.00;96529.72;4953706;28;20035;-54
2024/02/05 06:21:50;;;;;;;28.60;13.75;;;7.20;71.30;;;2.20;100.00;96526.28;4956265;28;20025;-56
2024/02/05 06:24:16;;;;;;;24.63;12.55;;;7.20;71.30;;;2.22;100.00;96525.06;4966517;28;20492;-56
2024/02/05 06:26:43;;;;;;;30.17;13.00;;;7.30;71.50;;;2.20;100.00;96519.22;4967420;28;20122;-57
2024/02/05 06:29:09;;;;;;;25.13;13.82;;;7.20;71.40;;;2.25;100.00;96524.69;4966729;28;20060;-57
2024/02/05 06:31:35;;;;;;;26.60;13.02;;;7.20;71.40;;;2.24;100.00;96530.97;4965473;28;20086;-54
2024/02/05 06:34:01;;;;;;;24.90;13.25;;;7.30;71.50;;;2.27;100.00;96532.41;4969153;28;20021;-58
2024/02/05 06:36:27;;;;;;;21.20;12.07;;;7.30;71.50;;;2.29;100.00;96525.16;4964832;28;20030;-55
2024/02/05 06:38:53;;;;;;;20.60;11.45;;;7.20;71.40;;;2.28;100.00;96526.94;4967528;28;20076;-54
2024/02/05 06:41:19;;;;;;;23.73;11.88;;;7.30;71.50;;;2.30;100.00;96538.09;4960013;28;20371;-53
2024/02/05 06:43:46;;;;;;;21.70;11.10;;;7.30;71.50;;;2.31;100.00;96534.47;4969787;28;20053;-56
2024/02/05 06:46:14;;;;;;;22.63;11.32;;;7.30;71.40;;;2.30;100.00;96539.94;4966126;28;20385;-56
2024/02/05 06:48:40;;;;;;;21.40;11.23;;;7.30;71.50;;;2.34;100.00;96550.88;4961306;28;20489;-55
2024/02/05 06:51:06;;;;;;;15.95;9.60;;;7.30;71.40;;;2.33;100.00;96544.81;4963832;28;20057;-53
2024/02/05 06:53:31;;;;;;;19.77;9.02;;;7.40;71.50;;;2.31;100.00;96542.34;4956635;28;20034;-58
2024/02/05 06:55:57;;;;;;;23.00;9.52;;;7.40;71.50;;;2.34;100.00;96550.88;4956202;28;20050;-56
2024/02/05 06:58:23;;;;;;;16.88;8.75;;;7.40;71.40;;;2.34;100.00;96549.06;4956172;28;20105;-54
2024/02/05 07:00:49;;;;;;;18.88;8.73;;;7.40;71.40;;;2.40;100.00;96550.94;4964125;28;20039;-57
2024/02/05 07:03:15;;;;;;;18.40;7.80;;;7.40;71.40;;;2.38;100.00;96552.13;4958157;28;20037;-58
2024/02/05 07:05:41;;;;;;;14.35;7.50;;;7.40;71.40;;;2.40;100.00;96553.56;4958658;28;20042;-54
2024/02/05 07:08:07;;;;;;;11.57;7.72;;;7.40;71.40;;;2.42;100.00;96556.81;4958325;28;20027;-56
2024/02/05 07:10:32;;;;;;;15.43;7.40;;;7.50;71.40;;;2.43;100.00;96561.06;4958089;28;20486;-57
2024/02/05 07:12:58;;;;;;;12.80;7.45;;;7.50;71.30;;;2.39;100.00;96554.56;4958544;28;20037;-57
2024/02/05 07:15:24;;;;;;;12.27;7.03;;;7.50;71.20;;;2.47;100.00;96572.03;4958358;28;20034;-56
2024/02/05 07:17:50;;;;;;;9.95;6.72;;;7.50;71.10;;;2.48;100.00;96565.78;4956628;28;20022;-54
2024/02/05 07:20:16;;;;;;;12.77;6.93;;;7.60;71.10;;;2.50;100.00;96576.91;4957332;28;20057;-55
2024/02/05 07:22:43;;;;;;;12.05;6.78;;;7.60;71.10;;;2.50;100.00;96575.09;4955698;28;20054;-56
2024/02/05 07:25:09;;;;;;;13.90;6.38;;;7.60;71.00;;;2.54;100.00;96578.97;4965176;28;20030;-54
2024/02/05 07:27:37;;;;;;;11.30;7.05;;;7.60;70.90;;;2.51;100.00;96574.09;4961180;28;20018;-55
2024/02/05 07:30:03;;;;;;;9.80;6.50;;;7.70;70.90;;;2.55;100.00;96567.44;4964695;28;20486;-56
2024/02/05 07:32:29;;;;;;;12.65;6.50;;;7.70;70.80;;;2.58;100.00;96571.53;4967405;28;20045;-58
2024/02/05 07:34:56;;;;;;;13.27;6.72;;;7.70;70.80;;;2.59;100.00;96567.06;4960310;28;20081;-57
2024/02/05 07:37:22;;;;;;;13.93;6.03;;;7.80;70.70;;;2.62;100.00;96567.50;4964268;28;20113;-56
2024/02/05 07:39:48;;;;;;;12.18;6.30;;;7.80;70.60;;;2.74;100.00;96568.59;4961965;28;20031;-58
2024/02/05 07:42:14;;;;;;;12.27;6.03;;;7.90;70.60;;;2.81;100.00;96568.66;4964551;28;20469;-56
2024/02/05 07:44:41;;;;;;;13.10;6.38;;;7.90;70.50;;;2.84;100.00;96565.63;4964519;28;20053;-57
2024/02/05 07:47:07;;;;;;;10.35;5.53;;;8.00;70.50;;;2.93;100.00;96571.56;4965957;28;20050;-54
2024/02/05 07:49:33;;;;;;;12.50;6.90;;;8.10;70.40;;;2.92;100.00;96562.06;4961555;28;20128;-55
2024/02/05 07:51:59;;;;;;;9.55;6.25;;;8.20;70.30;;;2.96;100.00;96561.47;4961498;28;20732;-58
2024/02/05 07:54:27;;;;;;;12.05;6.32;;;8.20;70.10;;;3.04;100.00;96572.84;4958250;28;20113;-54
2024/02/05 07:56:54;;;;;;;12.25;6.15;;;8.20;70.00;;;3.05;100.00;96570.03;4965934;28;20260;-51
2024/02/05 07:59:19;;;;;;;11.35;6.07;;;8.30;69.90;;;2.93;100.00;96568.94;4965576;28;20026;-54
2024/02/05 08:01:46;;;;;;;9.13;5.70;;;8.30;69.70;;;2.97;100.00;96573.63;4964647;28;20026;-56
2024/02/05 08:04:12;;;;;;;11.23;5.75;;;8.30;69.60;;;3.06;100.00;96574.28;4967251;28;20029;-57
2024/02/05 08:06:38;;;;;;;17.05;5.05;;;8.30;69.50;;;3.13;100.00;96579.59;4964443;28;20605;-57
2024/02/05 08:09:04;;;;;;;12.45;5.57;;;8.40;69.60;;;3.11;100.00;96574.53;4965543;28;20034;-56
2024/02/05 08:11:31;;;;;;;11.27;4.97;;;8.40;69.50;;;3.06;100.00;96584.81;4965924;28;20042;-55
2024/02/05 08:13:57;;;;;;;10.38;4.97;;;8.40;69.30;;;3.07;100.00;96575.94;4968520;28;20050;-56
2024/02/05 08:16:23;;;;;;;11.27;5.53;;;8.40;69.10;;;3.07;100.00;96583.84;4961205;28;20109;-56
2024/02/05 08:18:50;;;;;;;16.83;6.40;;;8.40;68.90;;;3.07;100.00;96578.56;4967219;28;20458;-58
2024/02/05 08:21:16;;;;;;;10.15;5.03;;;8.40;68.80;;;3.11;100.00;96574.53;4960656;28;20365;-58
2024/02/05 08:23:42;;;;;;;10.13;5.03;;;8.50;68.80;;;3.16;100.00;96573.94;4967048;28;20113;-54
2024/02/05 08:26:08;;;;;;;12.50;5.15;;;8.50;68.80;;;3.21;100.00;96575.00;4966999;28;20125;-54
2024/02/05 08:28:34;;;;;;;12.73;4.72;;;8.60;68.80;;;3.22;100.00;96578.44;4966392;28;20073;-58
2024/02/05 08:31:00;;;;;;;10.10;5.25;;;8.60;68.70;;;3.24;100.00;96571.16;4970924;28;20033;-56
2024/02/05 08:33:27;;;;;;;11.57;5.68;;;8.60;69.20;;;3.18;100.00;96571.94;4966819;28;20132;-56
2024/02/05 08:35:53;;;;;;;10.45;5.55;;;8.70;68.30;;;3.21;100.00;96569.72;4969830;28;20057;-57
2024/02/05 08:38:19;;;;;;;11.35;5.40;;;8.80;68.20;;;3.39;100.00;96563.16;4968967;28;20109;-58
2024/02/05 08:40:48;;;;;;;10.95;5.35;;;8.90;68.20;;;3.54;100.00;96573.53;4960464;28;20405;-57
2024/02/05 08:43:14;;;;;;;9.48;5.03;;;9.20;68.20;;;3.67;100.00;96570.97;4968517;28;20026;-56
2024/02/05 08:45:40;;;;;;;6.88;4.03;;;9.60;67.80;;;3.84;100.00;96561.69;4968162;28;20026;-56
2024/02/05 08:48:06;;;;;;;10.20;4.70;;;9.80;67.30;;;4.08;100.00;96568.25;4965031;28;20521;-53
2024/02/05 08:50:33;;;;;;;8.07;4.57;;;10.10;66.90;;;4.24;100.00;96553.88;4959806;28;20413;-57
2024/02/05 08:53:03;;;;;;;8.75;3.95;;;10.40;66.40;;;4.49;100.00;96563.88;4957726;28;20023;-58
2024/02/05 08:55:29;;;;;;;8.88;3.83;;;10.70;65.90;;;4.59;100.00;96559.00;4959223;28;20037;-57
2024/02/05 08:57:55;;;;;;;11.85;3.88;;;10.90;65.50;;;4.72;100.00;96555.53;4959142;28;20405;-58
2024/02/05 09:00:22;;;;;;;7.93;3.70;;;10.90;65.20;;;4.69;100.00;96562.03;4962647;28;20053;-57
2024/02/05 09:02:53;;;;;;;8.73;3.67;;;10.90;64.90;;;4.67;100.00;96560.59;4959267;28;20072;-55
2024/02/05 09:05:20;;;;;;;6.93;3.83;;;11.00;64.30;;;4.63;100.00;96562.84;4956085;28;20034;-59
2024/02/05 09:07:47;;;;;;;6.82;3.92;;;10.90;64.80;;;4.75;100.00;96558.56;4959054;28;20018;-55
2024/02/05 09:10:13;;;;;;;8.35;4.38;;;10.90;64.00;;;4.62;100.00;96550.66;4962456;28;20034;-57
2024/02/05 09:12:39;;;;;;;9.80;4.10;;;10.90;63.80;;;4.63;100.00;96560.19;4947863;23;20113;-55
2024/02/05 09:15:06;;;;;;;9.05;3.70;;;10.90;63.50;;;4.66;100.00;96565.06;4932333;28;20035;-49
2024/02/05 09:17:32;;;;;;;7.60;3.72;;;10.90;63.50;;;4.76;100.00;96560.19;4933290;29;20820;-53
2024/02/05 09:19:58;;;;;;;9.15;3.92;;;10.90;63.40;;;4.90;100.00;96555.72;4948555;28;20085;-53
2024/02/05 09:22:24;;;;;;;8.38;3.90;;;11.00;63.50;;;4.90;100.00;96553.09;4946113;28;20030;-54
2024/02/05 09:24:50;;;;;;;6.38;3.53;;;10.90;63.20;;;5.03;100.00;96554.91;4935126;28;20441;-52
2024/02/05 09:27:18;;;;;;;7.20;3.80;;;11.00;63.10;;;5.12;100.00;96555.50;4932599;28;20027;-56
2024/02/05 09:29:44;;;;;;;6.57;4.03;;;11.20;63.00;;;5.03;100.00;96554.91;4932862;29;20058;-52
2024/02/05 09:32:09;;;;;;;9.00;3.75;;;11.30;62.60;;;5.07;100.00;96556.09;4932838;29;20062;-50
2024/02/05 09:34:35;;;;;;;7.07;3.22;;;11.30;62.40;;;5.13;100.00;96554.47;4937626;28;20029;-50
2024/02/05 09:37:04;;;;;;;6.93;2.83;;;11.30;62.20;;;5.25;99.96;96560.75;4932513;28;20023;-52
2024/02/05 09:39:31;;;;;;;6.53;2.50;;;11.40;62.00;;;5.33;97.49;96553.41;4936306;28;20445;-52
2024/02/05 09:42:01;;;;;;;4.82;2.55;;;11.60;61.80;;;5.60;96.04;96547.22;4934620;28;20027;-53
2024/02/05 09:44:35;;;;;;;7.43;2.63;;;12.00;61.40;;;5.65;94.49;96545.59;4932126;28;20503;-54
2024/02/05 09:47:04;;;;;;;5.97;2.83;;;12.20;60.80;;;5.64;94.46;96551.91;4943984;28;20433;-54
2024/02/05 09:49:31;;;;;;;8.32;2.97;;;12.40;60.30;;;5.92;93.06;96553.38;4940524;28;20020;-50
2024/02/05 09:52:03;;;;;;;9.77;3.20;;;12.50;60.70;;;6.06;92.24;96548.88;4930250;29;20050;-51
2024/02/05 09:54:31;;;;;;;5.43;2.78;;;12.80;59.60;;;6.23;90.61;96550.78;4939681;28;20514;-52
2024/02/05 09:56:59;;;;;;;5.72;3.13;;;13.00;59.30;;;6.60;89.38;96540.38;4926773;29;20022;-55
2024/02/05 09:59:25;;;;;;;7.18;3.38;;;13.30;59.10;;;6.88;86.75;96539.94;4929909;29;20019;-52
2024/02/05 10:01:54;;;;;;;9.57;3.05;;;13.70;58.90;;;7.03;85.96;96539.59;4927869;29;20023;-48
2024/02/05 10:04:24;;;;;;;7.63;3.30;;;13.90;58.40;;;7.05;84.85;96532.25;4935119;28;20037;-51
2024/02/05 10:06:53;;;;;;;7.57;3.58;;;14.20;58.10;;;7.07;83.98;96532.81;4945547;28;20058;-47
2024/02/05 10:09:23;;;;;;;10.10;3.53;;;14.40;57.40;;;7.39;83.30;96541.44;4930303;29;20097;-51
2024/02/05 10:11:51;;;;;;;7.10;3.58;;;14.70;57.00;;;7.50;81.17;96533.81;4945578;28;20647;-50
2024/02/05 10:14:18;;;;;;;10.15;3.83;;;14.90;56.40;;;7.92;81.36;96532.06;4914071;29;20118;-50